Time;durP1;ratioP1;P1;durP2;ratioP2;P2;SDS_P1;SDS_P2;PMS_P1;PMS_P2;Temp;Humidity;BMP_temperature;BMP_pressure;BME280_temperature;BME280_humidity;BME280_pressure;Samples;Min_cycle;Max_cycle;Signal;HPM_P1;HPM_P2
2023/03/21 00:02:11;;;;;;;10.65;8.77;;;;;;;13.58;70.91;100916.63;10375156;28;96735;-84
2023/03/21 00:07:16;;;;;;;14.13;9.85;;;;;;;13.78;70.23;100925.53;10374713;28;96817;-84
2023/03/21 00:12:25;;;;;;;11.68;9.38;;;;;;;13.60;70.98;100914.78;10374440;28;96912;-84
2023/03/21 00:17:31;;;;;;;13.13;9.50;;;;;;;13.33;71.46;100915.91;10374637;28;96985;-84
2023/03/21 00:22:43;;;;;;;11.48;9.20;;;;;;;13.33;71.45;100917.66;10374443;28;97555;-84
2023/03/21 00:27:55;;;;;;;11.13;8.65;;;;;;;13.43;70.93;100916.41;10373486;28;96645;-84
2023/03/21 00:33:22;;;;;;;;;;;;;;;;;;;;;
2023/03/21 00:38:27;;;;;;;10.55;7.85;;;;;;;13.50;71.13;100929.28;10372327;28;96959;-84
2023/03/21 00:43:35;;;;;;;12.15;8.77;;;;;;;13.57;70.92;100941.34;10373445;28;96699;-85
2023/03/21 00:48:42;;;;;;;10.68;8.30;;;;;;;13.46;71.92;100938.28;10373674;28;96618;-85
2023/03/21 00:53:45;;;;;;;11.73;8.73;;;;;;;13.53;72.06;100926.53;10373619;28;96634;-84
2023/03/21 00:58:50;;;;;;;13.23;11.30;;;;;;;13.61;72.17;100929.72;10373227;28;96817;-85
2023/03/21 01:04:03;;;;;;;15.23;12.27;;;;;;;13.74;71.60;100931.84;10372916;28;96747;-85
2023/03/21 01:09:18;;;;;;;18.13;12.73;;;;;;;13.81;71.98;100925.38;10373204;28;96769;-85
2023/03/21 01:14:27;;;;;;;16.88;12.35;;;;;;;13.85;72.15;100930.47;10373717;28;96955;-84
2023/03/21 01:19:32;;;;;;;16.50;12.27;;;;;;;14.02;71.92;100935.94;10372980;28;96713;-84
2023/03/21 01:24:55;;;;;;;11.88;7.38;;;;;;;13.97;72.14;100934.41;10372747;28;97032;-84
2023/03/21 01:30:31;;;;;;;;;;;;;;;;;;;;;
2023/03/21 01:35:43;;;;;;;11.85;8.55;;;;;;;13.67;72.85;100937.38;10372487;28;96685;-84
2023/03/21 01:41:12;;;;;;;;;;;;;;;;;;;;;
2023/03/21 02:20:14;;;;;;;13.52;9.65;;;;;;;13.31;74.21;100891.31;10352370;28;97370;-84
2023/03/21 02:26:23;;;;;;;12.73;9.32;;;;;;;13.31;73.65;100879.91;10326549;28;96934;-84
2023/03/21 02:32:09;;;;;;;14.88;10.77;;;;;;;13.34;73.54;100874.47;10336267;28;96874;-84
2023/03/21 02:37:40;;;;;;;13.07;8.77;;;;;;;13.39;73.17;100864.56;10169361;28;96905;-84
2023/03/21 02:43:04;;;;;;;7.70;6.20;;;;;;;13.40;72.80;100855.69;10169087;28;96845;-84
2023/03/21 02:48:32;;;;;;;9.38;6.90;;;;;;;13.43;72.48;100848.50;10168126;28;96969;-84
2023/03/21 02:54:01;;;;;;;8.55;6.95;;;;;;;13.41;71.89;100834.50;10297035;28;97177;-84
2023/03/21 02:59:27;;;;;;;6.70;5.28;;;;;;;13.25;71.81;100824.63;10336324;28;97601;-84
2023/03/21 03:04:32;;;;;;;8.75;6.70;;;;;;;13.13;71.81;100822.50;10336208;28;96773;-84
2023/03/21 03:09:56;;;;;;;9.75;6.93;;;;;;;13.20;70.73;100819.53;10335362;28;96907;-84
2023/03/21 03:15:16;;;;;;;8.85;6.50;;;;;;;13.16;71.28;100831.16;10335076;28;96926;-84
2023/03/21 03:20:38;;;;;;;8.32;6.13;;;;;;;13.08;71.35;100827.97;10333253;28;96752;-83
2023/03/21 03:25:48;;;;;;;10.48;6.80;;;;;;;12.96;72.20;100831.13;10334823;28;96726;-84
2023/03/21 03:31:10;;;;;;;;;;;;;;;;;;;;;
2023/03/21 03:36:41;;;;;;;8.85;6.00;;;;;;;12.94;72.09;100817.09;10333755;28;96752;-84
2023/03/21 03:41:50;;;;;;;9.45;5.93;;;;;;;12.93;72.18;100811.88;10334108;28;96665;-84
2023/03/21 03:47:21;;;;;;;7.95;6.10;;;;;;;12.97;71.68;100795.84;10342594;28;96780;-84
2023/03/21 03:52:49;;;;;;;8.48;5.93;;;;;;;12.99;71.46;100782.56;10375726;28;97467;-84
2023/03/21 03:58:03;;;;;;;9.25;6.68;;;;;;;12.93;71.03;100786.31;10375839;28;96654;-82
2023/03/21 04:03:22;;;;;;;10.98;7.80;;;;;;;12.70;72.20;100793.44;10358726;28;96826;-82
2023/03/21 04:08:25;;;;;;;9.95;7.40;;;;;;;12.62;72.81;100798.16;10333249;28;97383;-82
2023/03/21 04:13:32;;;;;;;8.95;6.88;;;;;;;12.50;72.27;100807.38;10332369;28;96585;-82
2023/03/21 04:18:39;;;;;;;9.40;7.32;;;;;;;12.42;72.34;100828.81;10333074;28;96676;-83
2023/03/21 04:24:00;;;;;;;9.90;7.60;;;;;;;12.42;72.65;100854.34;10332168;28;96937;-83
2023/03/21 04:29:08;;;;;;;11.02;6.53;;;;;;;12.54;72.56;100861.78;10332940;28;96643;-83
2023/03/21 04:34:20;;;;;;;9.02;6.10;;;;;;;12.54;72.81;100861.78;10332940;28;96826;-83
2023/03/21 04:39:24;;;;;;;8.45;5.93;;;;;;;12.64;73.04;100871.09;10332707;28;97015;-83
2023/03/21 04:44:35;;;;;;;7.13;5.78;;;;;;;12.63;71.96;100857.94;10332402;28;96946;-83
2023/03/21 05:35:35;;;;;;;8.23;6.53;;;;;;;11.99;73.78;100831.31;10325010;28;97019;-83
2023/03/21 05:41:01;;;;;;;;;;;;;;;;;;;;;
2023/03/21 05:46:14;;;;;;;7.32;6.03;;;;;;;12.21;73.08;100826.97;10333202;28;97927;-82
2023/03/21 05:51:26;;;;;;;6.05;4.05;;;;;;;12.19;72.30;100841.13;10338240;28;96963;-82
2023/03/21 05:56:32;;;;;;;8.47;4.73;;;;;;;12.35;72.46;100839.66;10338191;28;96557;-82
2023/03/21 06:01:37;;;;;;;7.25;5.25;;;;;;;12.36;72.63;100833.44;10327914;28;96913;-82
2023/03/21 06:06:44;;;;;;;5.22;4.60;;;;;;;12.16;72.52;100835.97;10337681;28;96812;-82
2023/03/21 06:11:53;;;;;;;6.20;5.22;;;;;;;12.43;72.54;100840.19;10336647;28;96763;-82
2023/03/21 06:16:57;;;;;;;8.18;6.30;;;;;;;12.44;72.24;100841.94;10337129;28;96743;-82
2023/03/21 06:22:17;;;;;;;8.13;5.82;;;;;;;12.61;72.39;100850.06;10336847;28;97373;-82
2023/03/21 06:27:20;;;;;;;9.43;5.80;;;;;;;12.66;72.56;100861.34;10334529;28;97233;-82
2023/03/21 06:32:26;;;;;;;7.28;6.53;;;;;;;12.69;72.36;100868.31;10328751;28;97183;-82
2023/03/21 06:37:44;;;;;;;;;;;;;;;;;;;;;
